Terminal Aerodrome Forecast
Issued by NWS Blacksburg, VA

Current Version | Previous Version | Graphics & Text | Print | Product List | Glossary On
Versions: 1 2 3 4 5 6 7 8 9 10 11 12 13 14 15 16 17 18 19 20 21 22 23 24 25 26 27 28 29 30 31 32 33 34 35 36 37 38 39 40 41 42 43 44 45 46 47 48
000
FTUS41 KRNK 240140 AAA
TAFBLF
TAF AMD
KBLF 240140Z 2402/2424 06004KT 5SM -FZRA BR OVC005
     FM240400 08004KT 2SM -FZDZ BR OVC003
     FM240800 10004KT 1SM -SN BR OVC003
     FM241400 32012G22KT 2SM -SN BR OVC007
     FM241900 29011KT 3SM -SN BR OVC015=

USA.gov is the U.S. government's official web portal to all federal, state and local government web resources and services.